MSC Bettina — HPFG — position and weather

sailwx.info

Track history (hours):
 
Tides and Currents Weather Stations Pressure Air Temp Water Temp Dewpoint Dewpoint Depression Visibility Wind Speed Wind Dir Waves Ship Positions

MSC Bettina

Last reported at 2016-Apr-23 21:33 UTC. Time now 2016-Apr-28 21:52 UTC.
Position N 02°01' E 102°10'.

Length 366 m; draft 15.6 m.

Type: Ship (hazmat cat A). MMSI: 352361000.

Date/timePositionNaut miles runAvg speedWind from/ knotsBaromVisibWave heightAir tempDewpointWater temp
2016-Apr-23 21:33N 02°01' E 102°10'2120.9
2016-Apr-23 20:34N 01°50' E 102°28'6720.4
2016-Apr-23 17:17N 01°15' E 103°25'1217.1
2016-Apr-23 16:34N 01°12' E 103°37'9 9.4
2016-Apr-23 15:33N 01°16' E 103°45'1 0.6
2016-Apr-23 14:31N 01°16' E 103°46'0 0.0
2016-Apr-23 13:31N 01°16' E 103°46'0 0.0
2016-Apr-23 12:31N 01°16' E 103°46'0 0.0
2016-Apr-23 11:31N 01°16' E 103°46'0 0.0
2016-Apr-23 10:31N 01°16' E 103°46'0 0.0
2016-Apr-23 09:28N 01°16' E 103°46'0 0.0
2016-Apr-23 08:28N 01°16' E 103°46'0 0.0
2016-Apr-23 07:31N 01°16' E 103°46'0 0.0
2016-Apr-23 06:28N 01°16' E 103°46'0 0.0
2016-Apr-23 05:31N 01°16' E 103°46'0 0.0
2016-Apr-23 04:31N 01°16' E 103°46'0 0.0
2016-Apr-23 03:27N 01°16' E 103°46'0 0.0
2016-Apr-23 02:32N 01°16' E 103°46'0 0.0
2016-Apr-23 01:32N 01°16' E 103°46'0 0.0
2016-Apr-23 00:31N 01°16' E 103°46'0 0.0
2016-Apr-22 23:31N 01°16' E 103°46'0 0.0
2016-Apr-22 22:29N 01°16' E 103°46'0 0.0
2016-Apr-22 21:33N 01°16' E 103°46'0 0.0
2016-Apr-22 20:30N 01°16' E 103°46'0 0.0
2016-Apr-22 19:30N 01°16' E 103°46'0 0.0
2016-Apr-22 18:30N 01°16' E 103°46'0 0.0
2016-Apr-22 17:30N 01°16' E 103°46'0 0.0
2016-Apr-22 16:33N 01°16' E 103°46'0 0.0
2016-Apr-22 15:30N 01°16' E 103°46'0 0.0
2016-Apr-22 14:30N 01°16' E 103°46'1 0.6
2016-Apr-22 13:33N 01°16' E 103°45'8 8.4
2016-Apr-22 12:33N 01°13' E 103°53'7 7.2
2016-Apr-22 11:33N 01°16' E 104°00'9 8.8
2016-Apr-22 10:31N 01°17' E 104°09'  
2016-Apr-19 11:34N 21°58' E 114°22'1815.7
2016-Apr-19 10:24N 22°12' E 114°11'1011.6
2016-Apr-19 09:33N 22°20' E 114°05'9 0.5
2016-Apr-18 17:33N 22°21' E 113°56'9 9.3
2016-Apr-18 16:33N 22°19' E 114°05'17 8.3
2016-Apr-18 14:32N 22°09' E 114°19'21819.1
2016-Apr-18 03:06N 23°33' E 117°58'1222.0
2016-Apr-18 02:33N 23°43' E 118°06'2421.1
2016-Apr-18 01:26N 24°03' E 118°19'1416.5
2016-Apr-18 00:33N 24°17' E 118°13'1312.8
2016-Apr-17 23:33N 24°26' E 118°03'2 2.2
2016-Apr-17 22:34N 24°27' E 118°01'0 0.0
2016-Apr-17 21:33N 24°27' E 118°01'0 0.0
2016-Apr-17 20:33N 24°27' E 118°01'0 0.0
2016-Apr-17 19:33N 24°27' E 118°01'0 0.0
2016-Apr-17 18:33N 24°27' E 118°01'0 0.0
2016-Apr-17 17:33N 24°27' E 118°01'0 0.0
2016-Apr-17 16:33N 24°27' E 118°01'0 0.0
2016-Apr-17 15:34N 24°27' E 118°01'0 0.0
2016-Apr-17 14:33N 24°27' E 118°01'0 0.0
2016-Apr-17 13:33N 24°27' E 118°01'0 0.0
2016-Apr-17 12:33N 24°27' E 118°01'0 0.0
2016-Apr-17 11:33N 24°27' E 118°01'0 0.0
2016-Apr-17 10:33N 24°27' E 118°01'3 2.7
2016-Apr-17 09:34N 24°26' E 118°04'10 9.8
2016-Apr-17 08:34N 24°19' E 118°12'1010.1
2016-Apr-17 07:33N 24°14' E 118°21'3 3.0
2016-Apr-17 06:26N 24°15' E 118°25'0 0.1
2016-Apr-17 05:29N 24°15' E 118°25'0 0.0
2016-Apr-17 03:08N 24°15' E 118°25'0 0.1
2016-Apr-17 02:14N 24°15' E 118°25'0 0.1
2016-Apr-16 23:25N 24°15' E 118°25'0 0.1
2016-Apr-16 22:31N 24°15' E 118°25'0 0.0
2016-Apr-16 21:31N 24°15' E 118°25'0 0.0
2016-Apr-16 20:13N 24°15' E 118°25'0 0.0
2016-Apr-16 18:31N 24°15' E 118°25'0 0.1
2016-Apr-16 17:19N 24°15' E 118°25'20 2.3
2016-Apr-16 08:33N 24°21' E 118°46'2320.3
2016-Apr-16 07:27N 24°31' E 119°08'31516.4
2016-Apr-15 12:16N 28°24' E 123°04'1318.4
2016-Apr-15 11:33N 28°38' E 123°07'1817.9
2016-Apr-15 10:33N 28°55' E 123°10'1817.5
2016-Apr-15 09:33N 29°13' E 123°06'1717.2
2016-Apr-15 08:33N 29°26' E 122°54'1818.0
2016-Apr-15 07:32N 29°36' E 122°36'1717.1
2016-Apr-15 06:33N 29°45' E 122°19'1111.5
2016-Apr-15 05:33N 29°53' E 122°11'7 6.9
2016-Apr-15 04:31N 29°54' E 122°02'0 0.0
2016-Apr-15 03:33N 29°54' E 122°02'0 0.0
2016-Apr-14 22:20N 29°54' E 122°02'0 0.0
2016-Apr-14 17:08N 29°54' E 122°02'0 0.0
2016-Apr-14 11:07N 29°54' E 122°02'0 0.2
2016-Apr-14 09:08N 29°54' E 122°03'5 8.0
2016-Apr-14 08:33N 29°55' E 122°08'1211.8
2016-Apr-14 07:33N 29°47' E 122°17'1211.7
2016-Apr-14 06:33N 29°45' E 122°30'6 5.8
2016-Apr-14 05:32N 29°46' E 122°36'0 0.1
2016-Apr-14 03:23N 29°46' E 122°37'  
Track history (hours):
 
Tides and Currents Weather Stations Pressure Air Temp Water Temp Dewpoint Dewpoint Depression Visibility Wind Speed Wind Dir Waves Ship Positions

MSC Bettina

Last reported at 2016-Apr-23 21:33 UTC. Time now 2016-Apr-28 21:52 UTC.
Position N 02°01' E 102°10'.

Length 366 m; draft 15.6 m.

Type: Ship (hazmat cat A). MMSI: 352361000.

Date/timePositionNaut miles runAvg speedWind from/ knotsBaromVisibWave heightAir tempDewpointWater temp
2016-Apr-23 21:33N 02°01' E 102°10'2120.9
2016-Apr-23 20:34N 01°50' E 102°28'6720.4
2016-Apr-23 17:17N 01°15' E 103°25'1217.1
2016-Apr-23 16:34N 01°12' E 103°37'9 9.4
2016-Apr-23 15:33N 01°16' E 103°45'1 0.6
2016-Apr-23 14:31N 01°16' E 103°46'0 0.0
2016-Apr-23 13:31N 01°16' E 103°46'0 0.0
2016-Apr-23 12:31N 01°16' E 103°46'0 0.0
2016-Apr-23 11:31N 01°16' E 103°46'0 0.0
2016-Apr-23 10:31N 01°16' E 103°46'0 0.0
2016-Apr-23 09:28N 01°16' E 103°46'0 0.0
2016-Apr-23 08:28N 01°16' E 103°46'0 0.0
2016-Apr-23 07:31N 01°16' E 103°46'0 0.0
2016-Apr-23 06:28N 01°16' E 103°46'0 0.0
2016-Apr-23 05:31N 01°16' E 103°46'0 0.0
2016-Apr-23 04:31N 01°16' E 103°46'0 0.0
2016-Apr-23 03:27N 01°16' E 103°46'0 0.0
2016-Apr-23 02:32N 01°16' E 103°46'0 0.0
2016-Apr-23 01:32N 01°16' E 103°46'0 0.0
2016-Apr-23 00:31N 01°16' E 103°46'0 0.0
2016-Apr-22 23:31N 01°16' E 103°46'0 0.0
2016-Apr-22 22:29N 01°16' E 103°46'0 0.0
2016-Apr-22 21:33N 01°16' E 103°46'0 0.0
2016-Apr-22 20:30N 01°16' E 103°46'0 0.0
2016-Apr-22 19:30N 01°16' E 103°46'0 0.0
2016-Apr-22 18:30N 01°16' E 103°46'0 0.0
2016-Apr-22 17:30N 01°16' E 103°46'0 0.0
2016-Apr-22 16:33N 01°16' E 103°46'0 0.0
2016-Apr-22 15:30N 01°16' E 103°46'0 0.0
2016-Apr-22 14:30N 01°16' E 103°46'1 0.6
2016-Apr-22 13:33N 01°16' E 103°45'8 8.4
2016-Apr-22 12:33N 01°13' E 103°53'7 7.2
2016-Apr-22 11:33N 01°16' E 104°00'9 8.8
2016-Apr-22 10:31N 01°17' E 104°09'  
2016-Apr-19 11:34N 21°58' E 114°22'1815.7
2016-Apr-19 10:24N 22°12' E 114°11'1011.6
2016-Apr-19 09:33N 22°20' E 114°05'9 0.5
2016-Apr-18 17:33N 22°21' E 113°56'9 9.3
2016-Apr-18 16:33N 22°19' E 114°05'17 8.3
2016-Apr-18 14:32N 22°09' E 114°19'21819.1
2016-Apr-18 03:06N 23°33' E 117°58'1222.0
2016-Apr-18 02:33N 23°43' E 118°06'2421.1
2016-Apr-18 01:26N 24°03' E 118°19'1416.5
2016-Apr-18 00:33N 24°17' E 118°13'1312.8
2016-Apr-17 23:33N 24°26' E 118°03'2 2.2
2016-Apr-17 22:34N 24°27' E 118°01'0 0.0
2016-Apr-17 21:33N 24°27' E 118°01'0 0.0
2016-Apr-17 20:33N 24°27' E 118°01'0 0.0
2016-Apr-17 19:33N 24°27' E 118°01'0 0.0
2016-Apr-17 18:33N 24°27' E 118°01'0 0.0
2016-Apr-17 17:33N 24°27' E 118°01'0 0.0
2016-Apr-17 16:33N 24°27' E 118°01'0 0.0
2016-Apr-17 15:34N 24°27' E 118°01'0 0.0
2016-Apr-17 14:33N 24°27' E 118°01'0 0.0
2016-Apr-17 13:33N 24°27' E 118°01'0 0.0
2016-Apr-17 12:33N 24°27' E 118°01'0 0.0
2016-Apr-17 11:33N 24°27' E 118°01'0 0.0
2016-Apr-17 10:33N 24°27' E 118°01'3 2.7
2016-Apr-17 09:34N 24°26' E 118°04'10 9.8
2016-Apr-17 08:34N 24°19' E 118°12'1010.1
2016-Apr-17 07:33N 24°14' E 118°21'3 3.0
2016-Apr-17 06:26N 24°15' E 118°25'0 0.1
2016-Apr-17 05:29N 24°15' E 118°25'0 0.0
2016-Apr-17 03:08N 24°15' E 118°25'0 0.1
2016-Apr-17 02:14N 24°15' E 118°25'0 0.1
2016-Apr-16 23:25N 24°15' E 118°25'0 0.1
2016-Apr-16 22:31N 24°15' E 118°25'0 0.0
2016-Apr-16 21:31N 24°15' E 118°25'0 0.0
2016-Apr-16 20:13N 24°15' E 118°25'0 0.0
2016-Apr-16 18:31N 24°15' E 118°25'0 0.1
2016-Apr-16 17:19N 24°15' E 118°25'20 2.3
2016-Apr-16 08:33N 24°21' E 118°46'2320.3
2016-Apr-16 07:27N 24°31' E 119°08'31516.4
2016-Apr-15 12:16N 28°24' E 123°04'1318.4
2016-Apr-15 11:33N 28°38' E 123°07'1817.9
2016-Apr-15 10:33N 28°55' E 123°10'1817.5
2016-Apr-15 09:33N 29°13' E 123°06'1717.2
2016-Apr-15 08:33N 29°26' E 122°54'1818.0
2016-Apr-15 07:32N 29°36' E 122°36'1717.1
2016-Apr-15 06:33N 29°45' E 122°19'1111.5
2016-Apr-15 05:33N 29°53' E 122°11'7 6.9
2016-Apr-15 04:31N 29°54' E 122°02'0 0.0
2016-Apr-15 03:33N 29°54' E 122°02'0 0.0
2016-Apr-14 22:20N 29°54' E 122°02'0 0.0
2016-Apr-14 17:08N 29°54' E 122°02'0 0.0
2016-Apr-14 11:07N 29°54' E 122°02'0 0.2
2016-Apr-14 09:08N 29°54' E 122°03'5 8.0
2016-Apr-14 08:33N 29°55' E 122°08'1211.8
2016-Apr-14 07:33N 29°47' E 122°17'1211.7
2016-Apr-14 06:33N 29°45' E 122°30'6 5.8
2016-Apr-14 05:32N 29°46' E 122°36'0 0.1
2016-Apr-14 03:23N 29°46' E 122°37'  

Dump ship's entire track history